Time;durP1;ratioP1;P1;durP2;ratioP2;P2;SDS_P1;SDS_P2;PMS_P1;PMS_P2;Temp;Humidity;BMP_temperature;BMP_pressure;BME280_temperature;BME280_humidity;BME280_pressure;Samples;Min_cycle;Max_cycle;Signal;HPM_P1;HPM_P2
2021/04/24 00:00:07;;;;;;;;;;;;;;;18.83;67.62;101495.72;4836209;29;1603;-71
2021/04/24 00:02:35;;;;;;;;;;;;;;;18.82;67.77;101488.72;4838001;29;1110;-72
2021/04/24 00:05:01;;;;;;;;;;;;;;;18.83;67.75;101485.16;4838103;29;1231;-72
2021/04/24 00:07:28;;;;;;;;;;;;;;;18.84;67.84;101478.13;4836780;29;1346;-73
2021/04/24 00:09:54;;;;;;;;;;;;;;;18.84;67.70;101478.13;4836841;29;1355;-72
2021/04/24 00:12:40;;;;;;;;;;;;;;;18.82;67.71;101466.75;4836797;29;1172;-72
2021/04/24 00:15:10;;;;;;;;;;;;;;;18.82;67.84;101464.97;4836720;29;1362;-72
2021/04/24 00:17:37;;;;;;;;;;;;;;;18.81;67.75;101452.72;4836648;29;1965;-72
2021/04/24 00:20:04;;;;;;;;;;;;;;;18.82;68.07;101453.53;4838132;29;1230;-72
2021/04/24 00:22:31;;;;;;;;;;;;;;;18.81;67.80;101449.22;4840975;29;1078;-72
2021/04/24 00:24:57;;;;;;;;;;;;;;;18.81;67.84;101446.56;4841680;29;1207;-72
2021/04/24 00:27:24;;;;;;;;;;;;;;;18.82;67.96;101448.28;4842009;29;1134;-72
2021/04/24 00:29:51;;;;;;;;;;;;;;;18.80;67.79;101443.06;4840189;29;1235;-73
2021/04/24 00:32:17;;;;;;;;;;;;;;;18.79;67.72;101435.22;4824879;29;1208;-72
2021/04/24 00:34:44;;;;;;;;;;;;;;;18.80;67.93;101437.78;4841376;29;1230;-72
2021/04/24 00:37:10;;;;;;;;;;;;;;;18.80;67.93;101435.16;4841627;29;1982;-72
2021/04/24 00:39:36;;;;;;;;;;;;;;;18.79;67.83;101436.06;4841589;29;1355;-72
2021/04/24 00:42:03;;;;;;;;;;;;;;;18.80;67.86;101434.28;4840085;29;1065;-72
2021/04/24 00:44:29;;;;;;;;;;;;;;;18.79;67.66;101427.28;4841389;29;1302;-71
2021/04/24 00:46:56;;;;;;;;;;;;;;;18.78;67.74;101431.75;4841341;29;1103;-72
2021/04/24 00:49:22;;;;;;;;;;;;;;;18.78;67.65;101426.47;4841137;29;1375;-72
2021/04/24 00:51:48;;;;;;;;;;;;;;;18.76;67.52;101427.44;4840097;29;1065;-72
2021/04/24 00:54:15;;;;;;;;;;;;;;;18.77;67.68;101421.25;4841245;29;1322;-72
2021/04/24 00:56:42;;;;;;;;;;;;;;;18.76;67.36;101427.44;4839721;29;1915;-71
2021/04/24 00:59:08;;;;;;;;;;;;;;;18.76;67.27;101427.44;4839331;29;1541;-72
2021/04/24 01:01:34;;;;;;;;;;;;;;;18.76;67.83;101427.44;4841136;29;1266;-73
2021/04/24 01:04:01;;;;;;;;;;;;;;;18.77;67.81;101423.88;4841005;29;871;-73
2021/04/24 01:06:27;;;;;;;;;;;;;;;18.76;67.79;101424.78;4824231;29;1241;-73
2021/04/24 01:08:54;;;;;;;;;;;;;;;18.75;67.75;101423.09;4839630;29;1323;-72
2021/04/24 01:11:20;;;;;;;;;;;;;;;18.75;67.45;101423.09;4840986;29;1249;-73
2021/04/24 01:13:46;;;;;;;;;;;;;;;18.75;67.63;101428.38;4839383;29;982;-72
2021/04/24 01:16:12;;;;;;;;;;;;;;;18.75;67.73;101425.75;4840806;29;1219;-73
2021/04/24 01:18:39;;;;;;;;;;;;;;;18.75;67.69;101423.09;4840873;29;1919;-73
2021/04/24 01:21:06;;;;;;;;;;;;;;;18.74;67.48;101414.31;4840912;29;1229;-73
2021/04/24 01:23:33;;;;;;;;;;;;;;;18.75;67.69;101417.81;4840741;29;1145;-73
2021/04/24 01:26:00;;;;;;;;;;;;;;;18.73;67.70;101411.75;4839507;29;1223;-73
2021/04/24 01:28:28;;;;;;;;;;;;;;;18.73;67.53;101415.25;4840682;29;819;-73
2021/04/24 01:30:54;;;;;;;;;;;;;;;18.72;67.41;101413.56;4838981;29;1296;-73
2021/04/24 01:33:21;;;;;;;;;;;;;;;18.72;67.88;101416.19;4839807;29;859;-73
2021/04/24 01:35:48;;;;;;;;;;;;;;;18.71;67.71;101409.19;4838338;29;1215;-73
2021/04/24 01:38:15;;;;;;;;;;;;;;;18.73;67.70;101407.31;4840412;29;1982;-74
2021/04/24 01:40:41;;;;;;;;;;;;;;;18.73;67.36;101401.19;4823723;29;1236;-73
2021/04/24 01:43:08;;;;;;;;;;;;;;;18.71;67.56;101401.28;4838900;29;1065;-73
2021/04/24 01:45:35;;;;;;;;;;;;;;;18.70;67.65;101394.28;4840178;29;1477;-74
2021/04/24 01:48:05;;;;;;;;;;;;;;;18.70;67.54;101396.91;4840768;29;947;-74
2021/04/24 01:50:33;;;;;;;;;;;;;;;18.71;67.56;101387.22;4840324;29;1324;-73
2021/04/24 01:53:01;;;;;;;;;;;;;;;18.71;67.58;101392.50;4838946;29;1162;-73
2021/04/24 01:55:29;;;;;;;;;;;;;;;18.70;67.34;101388.13;4840467;29;1244;-73
2021/04/24 01:57:56;;;;;;;;;;;;;;;18.69;67.42;101384.66;4823663;29;1915;-74
2021/04/24 02:00:23;;;;;;;;;;;;;;;18.70;67.56;101391.63;4837923;29;1561;-74
2021/04/24 02:02:50;;;;;;;;;;;;;;;18.68;67.58;101385.59;4840408;29;910;-73
2021/04/24 02:05:17;;;;;;;;;;;;;;;18.68;67.44;101385.59;4838181;29;1540;-73
2021/04/24 02:07:52;;;;;;;;;;;;;;;18.69;67.59;101383.81;4838729;29;1407;-73
2021/04/24 02:10:18;;;;;;;;;;;;;;;18.68;67.56;101380.31;4838770;29;1384;-73
2021/04/24 02:12:45;;;;;;;;;;;;;;;18.67;67.19;101383.84;4838700;29;1085;-72
2021/04/24 02:15:11;;;;;;;;;;;;;;;18.67;67.15;101381.22;4840099;29;1318;-73
2021/04/24 02:17:37;;;;;;;;;;;;;;;18.68;67.25;101387.38;4838550;29;1915;-73
2021/04/24 02:20:04;;;;;;;;;;;;;;;18.67;67.32;101386.50;4838328;29;1243;-73
2021/04/24 02:22:31;;;;;;;;;;;;;;;18.67;67.52;101389.13;4838477;29;1059;-73
2021/04/24 02:24:59;;;;;;;;;;;;;;;18.68;67.22;101388.22;4822926;29;1466;-73
2021/04/24 02:27:26;;;;;;;;;;;;;;;18.67;67.28;101386.50;4839843;29;1189;-72
2021/04/24 02:29:54;;;;;;;;;;;;;;;18.67;67.50;101383.84;4839515;29;1305;-73
2021/04/24 02:32:28;;;;;;;;;;;;;;;18.67;67.48;101386.50;4839789;29;1058;-72
2021/04/24 02:34:55;;;;;;;;;;;;;;;18.67;67.04;101381.22;4838222;29;1167;-72
2021/04/24 02:37:21;;;;;;;;;;;;;;;18.67;67.53;101386.50;4837750;29;1915;-73
2021/04/24 02:39:48;;;;;;;;;;;;;;;18.65;67.20;101388.38;4837817;29;1419;-73
2021/04/24 02:42:16;;;;;;;;;;;;;;;18.63;66.97;101384.94;4839470;29;1101;-73
2021/04/24 02:44:43;;;;;;;;;;;;;;;18.66;67.48;101382.16;4839143;29;1247;-72
2021/04/24 02:47:09;;;;;;;;;;;;;;;18.66;67.22;101386.59;4839632;29;1445;-72
2021/04/24 02:49:36;;;;;;;;;;;;;;;18.64;67.12;101386.63;4837853;29;1318;-72
2021/04/24 02:52:03;;;;;;;;;;;;;;;18.64;67.42;101389.28;4837842;29;2099;-72
2021/04/24 02:54:30;;;;;;;;;;;;;;;18.65;66.95;101395.41;4838000;29;1230;-71
2021/04/24 02:56:57;;;;;;;;;;;;;;;18.64;67.05;101389.28;4837929;29;2008;-72
2021/04/24 02:59:24;;;;;;;;;;;;;;;18.63;67.33;101389.38;4839314;29;1480;-72
2021/04/24 03:01:50;;;;;;;;;;;;;;;18.65;67.20;101390.16;4838010;29;940;-73
2021/04/24 03:04:17;;;;;;;;;;;;;;;18.64;66.97;101386.63;4839352;29;1215;-73
2021/04/24 03:06:43;;;;;;;;;;;;;;;18.61;66.53;101384.16;4837991;29;1098;-73
2021/04/24 03:09:10;;;;;;;;;;;;;;;18.62;67.18;101380.59;4837967;29;797;-72
2021/04/24 03:11:37;;;;;;;;;;;;;;;18.61;66.82;101389.41;4838977;29;1296;-72
2021/04/24 03:14:04;;;;;;;;;;;;;;;18.63;67.23;101392.00;4839170;29;773;-72
2021/04/24 03:16:31;;;;;;;;;;;;;;;18.62;66.64;101385.88;4838821;29;1903;-72
2021/04/24 03:18:58;;;;;;;;;;;;;;;18.62;67.02;101391.16;4837724;29;943;-72
2021/04/24 03:21:25;;;;;;;;;;;;;;;18.62;67.12;101387.66;4838751;29;1255;-73
2021/04/24 03:23:52;;;;;;;;;;;;;;;18.61;66.98;101391.19;4838610;29;792;-72
2021/04/24 03:26:18;;;;;;;;;;;;;;;18.61;67.15;101396.47;4837119;29;1413;-72
2021/04/24 03:28:45;;;;;;;;;;;;;;;18.60;66.92;101406.22;4838740;29;1148;-72
2021/04/24 03:31:11;;;;;;;;;;;;;;;18.61;67.01;101407.91;4838682;29;1324;-72
2021/04/24 03:33:39;;;;;;;;;;;;;;;18.60;67.02;101410.63;4822345;29;1284;-72
2021/04/24 03:36:06;;;;;;;;;;;;;;;18.58;66.95;101418.59;4836282;29;1238;-72
2021/04/24 03:38:32;;;;;;;;;;;;;;;18.59;66.92;101414.16;4838637;29;1984;-73
2021/04/24 03:40:59;;;;;;;;;;;;;;;18.60;66.90;101419.41;4836972;29;1315;-73
2021/04/24 03:43:25;;;;;;;;;;;;;;;18.60;66.42;101415.91;4837674;29;929;-73
2021/04/24 03:45:51;;;;;;;;;;;;;;;18.58;66.67;101408.03;4836836;29;1296;-72
2021/04/24 03:48:18;;;;;;;;;;;;;;;18.59;66.72;101407.13;4838470;29;777;-72
2021/04/24 03:50:44;;;;;;;;;;;;;;;18.58;66.83;101408.03;4838397;29;1251;-72
2021/04/24 03:53:10;;;;;;;;;;;;;;;18.60;66.97;101407.97;4837048;29;1210;-72
2021/04/24 03:55:37;;;;;;;;;;;;;;;18.60;66.84;101406.22;4838185;29;1230;-72
2021/04/24 03:58:03;;;;;;;;;;;;;;;18.58;66.87;101408.03;4838457;29;1978;-72
2021/04/24 04:00:30;;;;;;;;;;;;;;;18.59;66.34;101403.63;4836541;29;1203;-73
2021/04/24 04:02:59;;;;;;;;;;;;;;;18.59;66.90;101406.25;4837094;29;1302;-72
2021/04/24 04:05:35;;;;;;;;;;;;;;;18.58;66.66;101401.91;4838112;29;1316;-73
2021/04/24 04:08:02;;;;;;;;;;;;;;;18.58;66.70;101391.34;4836505;29;1413;-72
2021/04/24 04:10:29;;;;;;;;;;;;;;;18.59;67.01;101387.78;4836760;29;1247;-72
2021/04/24 04:12:57;;;;;;;;;;;;;;;18.58;66.64;101392.19;4836722;29;1217;-73
2021/04/24 04:15:24;;;;;;;;;;;;;;;18.58;66.76;101397.47;4837936;29;1239;-73
2021/04/24 04:17:53;;;;;;;;;;;;;;;18.57;66.32;101397.56;4838361;29;1907;-71
2021/04/24 04:20:20;;;;;;;;;;;;;;;18.57;66.46;101390.50;4838031;29;1317;-71
2021/04/24 04:22:46;;;;;;;;;;;;;;;18.58;66.85;101392.19;4836932;29;1010;-71
2021/04/24 04:25:13;;;;;;;;;;;;;;;18.59;66.88;101393.06;4836767;29;1321;-71
2021/04/24 04:27:40;;;;;;;;;;;;;;;18.58;66.59;101386.06;4837012;29;1057;-71
2021/04/24 04:30:08;;;;;;;;;;;;;;;18.58;66.39;101386.06;4836218;29;1317;-71
2021/04/24 04:32:34;;;;;;;;;;;;;;;18.57;66.68;101384.38;4836517;29;1358;-71
2021/04/24 04:35:01;;;;;;;;;;;;;;;18.58;66.92;101383.44;4838061;29;1238;-70
2021/04/24 04:37:27;;;;;;;;;;;;;;;18.57;66.63;101394.94;4838021;29;1943;-72
2021/04/24 04:39:53;;;;;;;;;;;;;;;18.57;66.68;101390.50;4837900;29;1322;-72
2021/04/24 04:42:20;;;;;;;;;;;;;;;18.58;66.52;101388.69;4836614;29;1211;-72
2021/04/24 04:44:46;;;;;;;;;;;;;;;18.53;66.07;101383.66;4836818;29;1321;-72
2021/04/24 04:47:12;;;;;;;;;;;;;;;18.53;66.48;101392.44;4836629;29;1487;-73
2021/04/24 04:49:38;;;;;;;;;;;;;;;18.55;66.81;101393.22;4836427;29;1568;-73
2021/04/24 04:52:05;;;;;;;;;;;;;;;18.56;66.72;101394.06;4837992;29;1028;-73
2021/04/24 04:54:31;;;;;;;;;;;;;;;18.55;66.35;101389.72;4836736;29;1364;-72
2021/04/24 04:56:57;;;;;;;;;;;;;;;18.52;66.53;101395.13;4836682;29;1915;-72
2021/04/24 04:59:27;;;;;;;;;;;;;;;18.54;66.50;101402.03;4838139;29;1301;-70
2021/04/24 05:01:53;;;;;;;;;;;;;;;18.54;66.59;101404.69;4821416;29;1213;-71
2021/04/24 05:04:32;;;;;;;;;;;;;;;18.54;66.53;101401.22;4836294;29;1325;-70
2021/04/24 05:06:58;;;;;;;;;;;;;;;18.55;66.57;101411.69;4836419;29;1210;-70
2021/04/24 05:09:25;;;;;;;;;;;;;;;18.56;66.46;101423.09;4838614;29;1253;-70
2021/04/24 05:11:51;;;;;;;;;;;;;;;18.55;66.41;101426.66;4840936;29;1023;-71
2021/04/24 05:14:18;;;;;;;;;;;;;;;18.53;66.37;101421.44;4840855;29;1320;-72
2021/04/24 05:16:44;;;;;;;;;;;;;;;18.52;66.43;101422.38;4839473;29;1915;-71
2021/04/24 05:19:11;;;;;;;;;;;;;;;18.52;66.08;101429.41;4840926;29;840;-71
2021/04/24 05:21:42;;;;;;;;;;;;;;;18.53;66.57;101431.16;4840991;29;946;-67
2021/04/24 05:24:08;;;;;;;;;;;;;;;18.50;66.65;101434.78;4824003;29;1354;-68
2021/04/24 05:26:35;;;;;;;;;;;;;;;18.49;66.30;101429.56;4840614;29;1199;-69
2021/04/24 05:29:01;;;;;;;;;;;;;;;18.54;66.57;101430.22;4840978;29;725;-66
2021/04/24 05:31:28;;;;;;;;;;;;;;;18.53;66.07;101426.72;4839588;29;1226;-68
2021/04/24 05:33:54;;;;;;;;;;;;;;;18.54;66.35;101430.22;4839311;29;882;-69
2021/04/24 05:36:21;;;;;;;;;;;;;;;18.58;66.76;101423.00;4839813;29;1251;-67
2021/04/24 05:39:08;;;;;;;;;;;;;;;18.56;66.76;101436.28;4840186;29;843;-68
2021/04/24 05:41:36;;;;;;;;;;;;;;;18.53;66.54;101431.16;4840072;29;1294;-68
2021/04/24 05:44:02;;;;;;;;;;;;;;;18.53;66.03;101432.00;4838298;29;823;-68
2021/04/24 05:46:29;;;;;;;;;;;;;;;18.52;66.44;101432.91;4839475;29;1776;-67
2021/04/24 05:48:55;;;;;;;;;;;;;;;18.53;66.27;101425.88;4839138;29;1544;-67
2021/04/24 05:51:22;;;;;;;;;;;;;;;18.53;66.34;101428.50;4838038;29;1376;-68
2021/04/24 05:53:49;;;;;;;;;;;;;;;18.52;65.79;101419.72;4839531;29;801;-68
2021/04/24 05:56:18;;;;;;;;;;;;;;;18.52;65.75;101424.16;4838123;29;1536;-67
2021/04/24 05:58:44;;;;;;;;;;;;;;;18.54;65.97;101422.31;4823031;29;1919;-68
2021/04/24 06:01:10;;;;;;;;;;;;;;;18.52;65.85;101429.41;4838650;29;1624;-68
2021/04/24 06:03:37;;;;;;;;;;;;;;;18.54;66.27;101431.06;4822699;29;1536;-68
2021/04/24 06:06:04;;;;;;;;;;;;;;;18.54;65.78;101424.94;4837580;29;1235;-69
2021/04/24 06:08:30;;;;;;;;;;;;;;;18.52;65.69;101429.41;4838058;29;875;-71
2021/04/24 06:10:57;;;;;;;;;;;;;;;18.54;66.29;101435.50;4837376;29;1288;-70
2021/04/24 06:13:23;;;;;;;;;;;;;;;18.53;65.95;101436.41;4837442;29;797;-70
2021/04/24 06:15:50;;;;;;;;;;;;;;;18.54;66.08;101438.16;4837053;29;1231;-70
2021/04/24 06:18:17;;;;;;;;;;;;;;;18.54;66.20;101438.16;4837048;29;1911;-70
2021/04/24 06:20:43;;;;;;;;;;;;;;;18.54;66.23;101432.88;4836968;29;1288;-70
2021/04/24 06:23:11;;;;;;;;;;;;;;;18.53;66.07;101439.06;4838871;29;1302;-68
2021/04/24 06:25:38;;;;;;;;;;;;;;;18.53;65.80;101433.78;4837082;29;1349;-68
2021/04/24 06:28:04;;;;;;;;;;;;;;;18.54;66.13;101438.16;4838538;29;1260;-70
2021/04/24 06:30:31;;;;;;;;;;;;;;;18.55;66.26;101445.97;4836653;29;1429;-69
2021/04/24 06:32:58;;;;;;;;;;;;;;;18.55;66.19;101448.63;4839067;29;1177;-70
2021/04/24 06:35:27;;;;;;;;;;;;;;;18.54;66.09;101449.53;4837481;29;1323;-69
2021/04/24 06:37:57;;;;;;;;;;;;;;;18.55;66.10;101453.03;4839116;29;1919;-69
2021/04/24 06:40:24;;;;;;;;;;;;;;;18.54;66.02;101453.97;4837281;29;1296;-69
2021/04/24 06:42:50;;;;;;;;;;;;;;;18.57;66.19;101451.19;4836281;29;1604;-68
2021/04/24 06:45:17;;;;;;;;;;;;;;;18.59;66.75;101456.38;4838556;29;1271;-68
2021/04/24 06:47:44;;;;;;;;;;;;;;;18.60;67.33;101452.84;4838678;29;1781;-69
2021/04/24 06:50:11;;;;;;;;;;;;;;;18.60;67.46;101458.97;4837122;29;1278;-71
2021/04/24 06:52:38;;;;;;;;;;;;;;;18.59;67.27;101456.38;4838560;29;1505;-68
2021/04/24 06:55:05;;;;;;;;;;;;;;;18.57;67.15;101453.84;4837279;29;1246;-70
2021/04/24 06:57:32;;;;;;;;;;;;;;;18.58;67.22;101449.38;4836036;29;1907;-71
2021/04/24 06:59:58;;;;;;;;;;;;;;;18.57;67.28;101448.56;4838014;29;1186;-70
2021/04/24 07:02:24;;;;;;;;;;;;;;;18.58;67.44;101450.25;4836266;29;1254;-71
2021/04/24 07:04:50;;;;;;;;;;;;;;;18.57;67.54;101445.91;4834299;29;1243;-71
2021/04/24 07:07:17;;;;;;;;;;;;;;;18.58;67.62;101455.53;4833473;29;965;-73
2021/04/24 07:09:43;;;;;;;;;;;;;;;18.60;67.57;101448.41;4836081;29;1372;-74
2021/04/24 07:12:10;;;;;;;;;;;;;;;18.59;67.82;101451.97;4833415;29;980;-72
2021/04/24 07:14:36;;;;;;;;;;;;;;;18.69;67.42;101455.91;4819955;29;1319;-74
2021/04/24 07:17:07;;;;;;;;;;;;;;;18.68;67.25;101456.84;4838005;29;1914;-73
2021/04/24 07:19:33;;;;;;;;;;;;;;;18.67;66.89;101449.84;4821674;29;1325;-74
2021/04/24 07:21:59;;;;;;;;;;;;;;;18.67;67.09;101448.97;4821434;29;1255;-70
2021/04/24 07:24:26;;;;;;;;;;;;;;;18.75;66.25;101454.78;4837551;29;1340;-76
2021/04/24 07:26:52;;;;;;;;;;;;;;;18.68;65.50;101454.19;4837144;29;1615;-74
2021/04/24 07:29:18;;;;;;;;;;;;;;;18.83;66.57;101450.84;4837752;29;1255;-70
2021/04/24 07:31:44;;;;;;;;;;;;;;;18.97;66.55;101456.34;4837196;29;1446;-72
2021/04/24 07:34:11;;;;;;;;;;;;;;;18.80;60.02;101464.19;4838729;29;784;-73
2021/04/24 07:36:39;;;;;;;;;;;;;;;18.59;59.66;101461.66;4819780;29;1373;-68
2021/04/24 07:39:07;;;;;;;;;;;;;;;18.53;58.17;101458.38;4815980;29;1907;-69
2021/04/24 07:41:34;;;;;;;;;;;;;;;18.51;56.87;101464.66;4817225;29;1196;-69
2021/04/24 07:44:01;;;;;;;;;;;;;;;18.52;56.43;101455.81;4819071;29;781;-71
2021/04/24 07:46:27;;;;;;;;;;;;;;;18.52;57.12;101456.66;4819612;29;1692;-69
2021/04/24 07:48:54;;;;;;;;;;;;;;;18.52;58.44;101450.53;4818401;29;805;-70
2021/04/24 07:51:20;;;;;;;;;;;;;;;18.51;59.79;101460.22;4818096;29;1220;-69
2021/04/24 07:53:47;;;;;;;;;;;;;;;18.51;60.02;101457.59;4820000;29;927;-69
2021/04/24 07:56:14;;;;;;;;;;;;;;;18.51;59.91;101456.75;4833991;29;1175;-69
2021/04/24 07:58:40;;;;;;;;;;;;;;;18.49;60.89;101453.31;4818626;29;1972;-71
2021/04/24 08:01:06;;;;;;;;;;;;;;;18.48;61.27;101462.97;4818691;29;1259;-70
2021/04/24 08:03:33;;;;;;;;;;;;;;;18.48;60.06;101457.69;4818624;29;1297;-70
2021/04/24 08:05:59;;;;;;;;;;;;;;;18.48;59.20;101457.69;4819851;29;1468;-69
2021/04/24 08:08:25;;;;;;;;;;;;;;;18.47;61.66;101458.63;4818712;29;812;-71
2021/04/24 08:10:51;;;;;;;;;;;;;;;18.48;60.02;101462.13;4818417;29;1219;-69
2021/04/24 08:13:18;;;;;;;;;;;;;;;18.47;61.36;101460.41;4820311;29;812;-70
2021/04/24 08:15:44;;;;;;;;;;;;;;;18.47;61.49;101469.19;4818374;29;1386;-70
2021/04/24 08:18:11;;;;;;;;;;;;;;;18.46;61.54;101463.97;4818560;29;1980;-69
2021/04/24 08:20:37;;;;;;;;;;;;;;;18.46;61.89;101462.19;4833827;29;1377;-69
2021/04/24 08:23:04;;;;;;;;;;;;;;;18.47;62.12;101478.88;4818684;29;1436;-70
2021/04/24 08:25:31;;;;;;;;;;;;;;;18.45;61.34;101465.72;4818547;29;1281;-70
2021/04/24 08:28:17;;;;;;;;;;;;;;;18.44;61.19;101468.47;4819771;29;1245;-69
2021/04/24 08:30:44;;;;;;;;;;;;;;;18.45;60.50;101470.19;4820376;29;1318;-70
2021/04/24 08:33:10;;;;;;;;;;;;;;;18.44;61.14;101469.31;4820294;29;973;-69
2021/04/24 08:35:37;;;;;;;;;;;;;;;18.46;61.95;101466.59;4818266;29;1303;-68
2021/04/24 08:38:03;;;;;;;;;;;;;;;18.47;62.53;101463.03;4820055;29;2020;-68
2021/04/24 08:40:30;;;;;;;;;;;;;;;18.47;61.57;101458.63;4833304;29;1344;-69
2021/04/24 08:42:56;;;;;;;;;;;;;;;18.45;62.91;101462.28;4819996;29;930;-68
2021/04/24 08:45:24;;;;;;;;;;;;;;;18.46;62.69;101466.59;4836808;29;1490;-68
2021/04/24 08:47:51;;;;;;;;;;;;;;;18.44;63.78;101464.03;4822712;29;1084;-69
2021/04/24 08:50:28;;;;;;;;;;;;;;;18.42;63.68;101468.50;4821290;29;1237;-69
2021/04/24 08:52:55;;;;;;;;;;;;;;;18.42;64.43;101470.31;4821420;29;1146;-69
2021/04/24 08:55:26;;;;;;;;;;;;;;;18.41;64.17;101480.00;4822581;29;1313;-69
2021/04/24 08:57:53;;;;;;;;;;;;;;;18.41;64.49;101482.66;4821245;29;1936;-69
2021/04/24 09:00:21;;;;;;;;;;;;;;;18.42;64.43;101494.06;4822533;29;1231;-69
2021/04/24 09:02:48;;;;;;;;;;;;;;;18.42;64.47;101491.41;4823018;29;951;-69
2021/04/24 09:05:16;;;;;;;;;;;;;;;18.42;64.40;101496.69;4821025;29;1323;-69
2021/04/24 09:07:43;;;;;;;;;;;;;;;18.40;64.60;101499.38;4822540;29;1102;-69
2021/04/24 09:10:18;;;;;;;;;;;;;;;18.41;64.47;101501.09;4822437;29;1243;-69
2021/04/24 09:12:46;;;;;;;;;;;;;;;18.40;64.46;101509.94;4822987;29;1065;-69
2021/04/24 09:15:14;;;;;;;;;;;;;;;18.40;64.60;101504.66;4821042;29;1311;-69
2021/04/24 09:17:48;;;;;;;;;;;;;;;18.41;64.47;101513.44;4836256;29;1919;-69
2021/04/24 09:20:15;;;;;;;;;;;;;;;18.41;64.59;101516.94;4822542;29;1537;-70
2021/04/24 09:22:42;;;;;;;;;;;;;;;18.41;64.51;101510.81;4821114;29;1086;-69
2021/04/24 09:25:08;;;;;;;;;;;;;;;18.41;64.46;101514.31;4836465;29;1349;-69
2021/04/24 09:27:47;;;;;;;;;;;;;;;18.41;64.53;101516.94;4821086;29;1063;-69
2021/04/24 09:30:18;;;;;;;;;;;;;;;18.41;64.48;101516.06;4821371;29;1302;-68
2021/04/24 09:32:45;;;;;;;;;;;;;;;18.42;64.50;101517.81;4822801;29;1074;-68
2021/04/24 09:35:14;;;;;;;;;;;;;;;18.42;64.43;101525.72;4836105;29;1809;-68
2021/04/24 09:37:40;;;;;;;;;;;;;;;18.42;64.49;101531.00;4822647;29;1972;-68
2021/04/24 09:40:10;;;;;;;;;;;;;;;18.41;64.39;101521.34;4820885;29;1247;-68
2021/04/24 09:42:38;;;;;;;;;;;;;;;18.41;64.45;101534.53;4820912;29;1366;-69
2021/04/24 09:45:25;;;;;;;;;;;;;;;18.40;64.43;101528.41;4820488;29;1322;-69
2021/04/24 09:47:51;;;;;;;;;;;;;;;18.42;64.35;101528.34;4820833;29;1813;-69
2021/04/24 09:50:19;;;;;;;;;;;;;;;18.40;64.72;101527.53;4821738;29;1307;-69
2021/04/24 09:52:46;;;;;;;;;;;;;;;18.40;64.42;101520.50;4822348;29;1108;-68
2021/04/24 09:55:33;;;;;;;;;;;;;;;18.39;64.48;101518.75;4819733;29;1216;-69
2021/04/24 09:58:00;;;;;;;;;;;;;;;18.40;64.54;101525.75;4820371;29;1907;-69
2021/04/24 10:00:27;;;;;;;;;;;;;;;18.40;64.46;101528.41;4820127;29;1358;-68
2021/04/24 10:02:54;;;;;;;;;;;;;;;18.40;64.43;101519.63;4820312;29;1267;-69
2021/04/24 10:05:21;;;;;;;;;;;;;;;18.41;64.46;101524.00;4820200;29;1262;-69
2021/04/24 10:07:49;;;;;;;;;;;;;;;18.41;64.53;101524.00;4805035;29;1358;-69
2021/04/24 10:10:16;;;;;;;;;;;;;;;18.41;64.55;101519.56;4820020;29;1235;-68
2021/04/24 10:12:56;;;;;;;;;;;;;;;18.42;64.36;101517.81;4821844;29;1188;-69
2021/04/24 10:15:42;;;;;;;;;;;;;;;18.41;64.26;101505.53;4821495;29;1345;-69
2021/04/24 10:18:10;;;;;;;;;;;;;;;18.41;64.33;101510.81;4821861;29;1907;-69
2021/04/24 10:20:37;;;;;;;;;;;;;;;18.40;64.46;101522.25;4819911;29;1286;-69
2021/04/24 10:23:06;;;;;;;;;;;;;;;18.40;64.53;101519.63;4819803;29;1143;-69
2021/04/24 10:25:34;;;;;;;;;;;;;;;18.40;64.38;101512.56;4820008;29;1224;-70
2021/04/24 10:28:00;;;;;;;;;;;;;;;18.41;64.29;101510.81;4821648;29;1193;-69
2021/04/24 10:30:27;;;;;;;;;;;;;;;18.39;64.23;101516.13;4819735;29;1303;-69
2021/04/24 10:32:54;;;;;;;;;;;;;;;18.40;64.32;101520.50;4834614;29;1395;-69
2021/04/24 10:35:21;;;;;;;;;;;;;;;18.39;64.41;101512.66;4820949;29;1207;-69
2021/04/24 10:37:52;;;;;;;;;;;;;;;18.41;64.34;101524.00;4834866;29;1915;-69
2021/04/24 10:40:19;;;;;;;;;;;;;;;18.39;64.29;101520.56;4819500;29;1395;-70
2021/04/24 10:42:53;;;;;;;;;;;;;;;18.39;64.29;101518.75;4820966;29;1049;-69
2021/04/24 10:45:29;;;;;;;;;;;;;;;18.40;64.40;101519.63;4820780;29;1360;-69
2021/04/24 10:47:56;;;;;;;;;;;;;;;18.38;64.32;101511.78;4820580;29;1225;-69
2021/04/24 10:50:38;;;;;;;;;;;;;;;18.38;64.30;101501.25;4819439;29;1360;-69
2021/04/24 10:53:24;;;;;;;;;;;;;;;18.40;64.31;101498.53;4821104;29;1172;-69
2021/04/24 10:55:54;;;;;;;;;;;;;;;18.38;64.34;101495.97;4819387;29;1235;-69
2021/04/24 10:58:22;;;;;;;;;;;;;;;18.39;64.36;101496.84;4820732;29;1973;-70
2021/04/24 11:00:56;;;;;;;;;;;;;;;18.40;64.26;101490.59;4819360;29;1230;-69
2021/04/24 11:03:35;;;;;;;;;;;;;;;18.40;64.33;101493.25;4834258;29;895;-68
2021/04/24 11:06:15;;;;;;;;;;;;;;;18.40;64.20;101483.56;4819584;29;1235;-69
2021/04/24 11:08:42;;;;;;;;;;;;;;;18.40;64.25;101482.69;4819402;29;1082;-68
2021/04/24 11:11:21;;;;;;;;;;;;;;;18.40;64.29;101483.56;4819201;29;1560;-68
2021/04/24 11:13:54;;;;;;;;;;;;;;;18.40;64.29;101473.00;4820919;29;847;-68
2021/04/24 11:16:43;;;;;;;;;;;;;;;18.40;64.31;101472.16;4819246;29;1493;-67
2021/04/24 11:19:09;;;;;;;;;;;;;;;18.41;64.35;101458.03;4803614;29;1936;-68
2021/04/24 11:21:36;;;;;;;;;;;;;;;18.41;64.27;101460.69;4803818;29;1311;-68
2021/04/24 11:24:11;;;;;;;;;;;;;;;18.41;64.33;101464.19;4820556;29;856;-68
2021/04/24 11:26:41;;;;;;;;;;;;;;;18.42;64.23;101454.50;4820377;29;1369;-69
2021/04/24 11:29:21;;;;;;;;;;;;;;;18.41;64.23;101458.91;4820217;29;937;-69
2021/04/24 11:32:02;;;;;;;;;;;;;;;18.43;64.23;101456.19;4818785;29;1187;-67
2021/04/24 11:34:42;;;;;;;;;;;;;;;18.42;64.22;101447.41;4820318;29;1318;-68
2021/04/24 11:37:14;;;;;;;;;;;;;;;18.43;64.23;101453.53;4818801;29;931;-69
2021/04/24 11:39:59;;;;;;;;;;;;;;;18.43;64.25;101448.28;4818513;29;1973;-69
2021/04/24 11:42:27;;;;;;;;;;;;;;;18.44;64.23;101437.66;4818611;29;1335;-69
2021/04/24 11:44:54;;;;;;;;;;;;;;;18.44;64.21;101442.06;4820226;29;1236;-69
2021/04/24 11:47:38;;;;;;;;;;;;;;;18.45;64.34;101435.88;4819951;29;1165;-69
2021/04/24 11:50:08;;;;;;;;;;;;;;;18.45;64.22;101433.25;4818479;29;1327;-69
2021/04/24 11:52:35;;;;;;;;;;;;;;;18.45;64.29;101430.63;4820123;29;995;-69
2021/04/24 11:55:01;;;;;;;;;;;;;;;18.45;64.27;101433.25;4818773;29;1235;-70
2021/04/24 11:57:29;;;;;;;;;;;;;;;18.44;64.22;101420.97;4820476;29;1977;-70
2021/04/24 12:00:10;;;;;;;;;;;;;;;18.45;64.24;101418.25;4818608;29;1326;-69
2021/04/24 12:02:56;;;;;;;;;;;;;;;18.45;64.43;101409.50;4818688;29;1264;-69
2021/04/24 12:05:31;;;;;;;;;;;;;;;18.46;64.21;101408.56;4820141;29;1290;-70
2021/04/24 12:07:59;;;;;;;;;;;;;;;18.46;64.33;101405.91;4818413;29;1455;-69
2021/04/24 12:10:31;;;;;;;;;;;;;;;18.48;64.22;101401.47;4819948;29;1235;-69
2021/04/24 12:13:08;;;;;;;;;;;;;;;18.49;64.20;101403.19;4818500;29;1337;-69
2021/04/24 12:15:39;;;;;;;;;;;;;;;18.49;64.31;101396.13;4818556;29;1720;-69
2021/04/24 12:18:09;;;;;;;;;;;;;;;18.51;64.16;101404.81;4822249;29;1966;-69
2021/04/24 12:20:37;;;;;;;;;;;;;;;18.51;64.24;101398.72;4822160;29;1429;-69
2021/04/24 12:23:08;;;;;;;;;;;;;;;18.52;64.22;101392.47;4822059;29;1279;-69
2021/04/24 12:25:36;;;;;;;;;;;;;;;18.52;64.15;101389.84;4823127;29;1233;-69
2021/04/24 12:28:07;;;;;;;;;;;;;;;18.52;64.18;101392.47;4823543;29;1224;-69
2021/04/24 12:30:36;;;;;;;;;;;;;;;18.53;64.17;101397.72;4821630;29;1289;-69
2021/04/24 12:33:07;;;;;;;;;;;;;;;18.54;64.21;101394.13;4823054;29;1077;-70
2021/04/24 12:35:35;;;;;;;;;;;;;;;18.55;64.12;101394.97;4821957;29;1298;-70
2021/04/24 12:38:15;;;;;;;;;;;;;;;18.55;64.12;101384.44;4823190;29;1903;-68
2021/04/24 12:40:45;;;;;;;;;;;;;;;18.56;64.08;101386.16;4821917;29;1222;-69
2021/04/24 12:43:32;;;;;;;;;;;;;;;18.58;64.02;101391.34;4821546;29;1015;-68
2021/04/24 12:46:00;;;;;;;;;;;;;;;18.57;64.10;101393.16;4822807;29;1219;-68
2021/04/24 12:48:32;;;;;;;;;;;;;;;18.59;64.16;101388.66;4821319;29;1192;-69
2021/04/24 12:51:00;;;;;;;;;;;;;;;18.60;63.96;101392.16;4823210;29;1339;-69
2021/04/24 12:53:47;;;;;;;;;;;;;;;18.60;64.06;101392.16;4822883;29;1607;-70